Terminal Aerodrome Forecast
Issued by NWS

Home | Current Version | Previous Version | Text Only | Print | Product List | Glossary On
Versions: 1 2 3 4 5 6 7 8 9 10 11 12 13 14 15 16 17
000
FTUS42 KTBW 282335 AAC
TAFPGD
TAF AMD
KPGD 282335Z 2900/2924 21006KT P6SM VCTS BKN045CB
     FM290600 17004KT P6SM FEW045 SCT060
     FM290900 00000KT P6SM FEW045 SCT060
     FM291800 23006KT P6SM VCTS BKN045CB BKN110=

USA.gov is the U.S. government's official web portal to all federal, state and local government web resources and services.